Time;durP1;ratioP1;P1;durP2;ratioP2;P2;SDS_P1;SDS_P2;PMS_P1;PMS_P2;Temp;Humidity;BMP_temperature;BMP_pressure;BME280_temperature;BME280_humidity;BME280_pressure;Samples;Min_cycle;Max_cycle;Signal;HPM_P1;HPM_P2
2023/11/23 00:01:47;;;;;;;33.20;25.08;;;17.90;71.70;;;;;;4949591;28;20352;-78
2023/11/23 00:04:13;;;;;;;32.38;23.85;;;17.80;71.60;;;;;;4968731;28;20122;-79
2023/11/23 00:06:38;;;;;;;34.38;24.08;;;17.80;71.60;;;;;;4969110;28;20190;-79
2023/11/23 00:09:06;;;;;;;28.58;23.13;;;17.80;71.60;;;;;;4967745;28;20042;-79
2023/11/23 00:11:31;;;;;;;29.77;22.85;;;17.80;71.70;;;;;;4947710;28;21922;-79
2023/11/23 00:13:57;;;;;;;28.90;21.95;;;17.80;71.70;;;;;;4951565;28;20043;-81
2023/11/23 00:16:22;;;;;;;31.75;24.27;;;17.80;71.80;;;;;;4969391;28;20549;-81
2023/11/23 00:18:48;;;;;;;30.33;23.23;;;17.80;71.90;;;;;;4970078;28;20035;-81
2023/11/23 00:21:13;;;;;;;31.38;24.33;;;17.80;71.80;;;;;;4967933;28;20050;-82
2023/11/23 00:23:41;;;;;;;30.13;23.13;;;17.80;71.80;;;;;;4967694;28;20118;-82
2023/11/23 00:26:06;;;;;;;28.80;22.42;;;17.80;71.80;;;;;;4964994;28;20719;-81
2023/11/23 00:28:32;;;;;;;28.17;22.27;;;17.80;71.80;;;;;;4970258;28;20137;-81
2023/11/23 00:30:58;;;;;;;28.58;21.23;;;17.70;71.80;;;;;;4972054;28;20459;-81
2023/11/23 00:33:24;;;;;;;30.95;23.38;;;17.80;71.90;;;;;;4968033;28;20034;-82
2023/11/23 00:35:49;;;;;;;28.70;20.83;;;17.70;71.80;;;;;;4968227;28;20051;-82
2023/11/23 00:38:18;;;;;;;28.80;21.45;;;17.70;71.90;;;;;;4950092;28;20058;-82
2023/11/23 00:40:44;;;;;;;26.45;20.60;;;17.70;71.90;;;;;;4948776;28;20170;-82
2023/11/23 00:43:10;;;;;;;25.50;20.27;;;17.70;71.70;;;;;;4970976;28;20138;-81
2023/11/23 00:45:37;;;;;;;25.67;20.65;;;17.70;71.80;;;;;;4967866;28;20047;-81
2023/11/23 00:48:03;;;;;;;26.38;20.27;;;17.70;71.90;;;;;;4970730;28;20043;-82
2023/11/23 00:50:28;;;;;;;22.65;18.58;;;17.70;71.90;;;;;;4966966;28;20531;-81
2023/11/23 00:52:54;;;;;;;25.45;19.15;;;17.70;71.90;;;;;;4966471;28;20043;-81
2023/11/23 00:55:20;;;;;;;24.10;19.92;;;17.70;71.90;;;;;;4971720;28;20528;-82
2023/11/23 00:57:46;;;;;;;22.25;18.33;;;17.70;72.40;;;;;;4966381;28;20129;-82
2023/11/23 01:00:16;;;;;;;22.02;18.45;;;17.70;71.90;;;;;;4969417;28;20098;-81
2023/11/23 01:02:43;;;;;;;22.85;17.90;;;17.60;71.70;;;;;;4970131;28;20065;-83
2023/11/23 01:05:11;;;;;;;22.70;17.85;;;17.70;71.90;;;;;;4965220;28;20128;-82
2023/11/23 01:07:38;;;;;;;21.58;17.17;;;17.60;71.80;;;;;;4967693;28;20058;-82
2023/11/23 01:10:07;;;;;;;21.35;17.20;;;17.70;71.50;;;;;;4971549;28;20046;-83
2023/11/23 01:12:33;;;;;;;20.45;16.52;;;17.60;71.70;;;;;;4967051;28;21202;-83
2023/11/23 01:14:59;;;;;;;20.02;16.95;;;17.60;71.70;;;;;;4970774;28;20042;-83
2023/11/23 01:17:25;;;;;;;19.63;16.00;;;17.60;71.60;;;;;;4965368;28;20464;-83
2023/11/23 01:19:50;;;;;;;19.05;15.70;;;17.60;72.50;;;;;;4953990;28;20042;-83
2023/11/23 01:22:16;;;;;;;19.20;15.40;;;17.60;71.50;;;;;;4956076;28;20039;-83
2023/11/23 01:24:42;;;;;;;20.95;16.10;;;17.60;71.60;;;;;;4966385;28;20049;-82
2023/11/23 01:27:07;;;;;;;18.10;15.18;;;17.60;71.60;;;;;;4965014;28;20046;-82
2023/11/23 01:29:33;;;;;;;19.88;15.65;;;17.60;71.80;;;;;;4967140;28;20046;-81
2023/11/23 01:31:59;;;;;;;18.75;15.38;;;17.60;72.40;;;;;;4964737;28;20193;-81
2023/11/23 01:34:24;;;;;;;17.42;15.02;;;17.60;71.60;;;;;;4963641;28;20047;-81
2023/11/23 01:36:50;;;;;;;19.05;15.40;;;17.60;71.70;;;;;;4968843;28;20054;-81
2023/11/23 01:39:16;;;;;;;17.70;14.77;;;17.60;71.80;;;;;;4966073;28;20043;-81
2023/11/23 01:41:41;;;;;;;17.58;14.18;;;17.60;71.80;;;;;;4969375;28;20046;-81
2023/11/23 01:44:07;;;;;;;16.83;14.27;;;17.60;71.80;;;;;;4966933;28;20042;-81
2023/11/23 01:46:33;;;;;;;17.55;14.57;;;17.60;71.80;;;;;;4984537;28;20047;-81
2023/11/23 01:48:59;;;;;;;18.02;14.90;;;17.60;71.80;;;;;;4966544;28;20094;-82
2023/11/23 01:51:24;;;;;;;15.40;13.05;;;17.60;71.80;;;;;;4966186;28;20046;-82
2023/11/23 01:53:50;;;;;;;17.00;14.23;;;17.50;71.80;;;;;;4967504;28;20031;-82
2023/11/23 01:56:15;;;;;;;14.93;12.88;;;17.50;71.80;;;;;;4948175;28;20043;-82
2023/11/23 01:58:41;;;;;;;15.27;12.63;;;17.50;71.80;;;;;;4951169;28;20409;-82
2023/11/23 02:01:07;;;;;;;15.93;13.45;;;17.50;71.80;;;;;;4967145;28;20484;-81
2023/11/23 02:03:33;;;;;;;15.15;13.35;;;17.50;71.90;;;;;;4967418;28;20097;-82
2023/11/23 02:05:58;;;;;;;15.20;13.02;;;17.50;72.00;;;;;;4967601;28;20254;-81
2023/11/23 02:08:24;;;;;;;16.10;13.48;;;17.50;72.10;;;;;;4966136;28;20043;-80
2023/11/23 02:10:49;;;;;;;15.15;12.98;;;17.60;71.90;;;;;;4968648;28;20066;-80
2023/11/23 02:13:15;;;;;;;13.93;12.40;;;17.50;71.90;;;;;;4968257;28;20046;-80
2023/11/23 02:15:41;;;;;;;13.80;11.68;;;17.50;72.00;;;;;;4966550;28;20102;-80
2023/11/23 02:18:07;;;;;;;13.40;11.82;;;17.50;72.10;;;;;;4979381;28;20038;-80
2023/11/23 02:20:32;;;;;;;14.02;12.55;;;17.50;72.20;;;;;;4970718;28;20039;-80
2023/11/23 02:23:01;;;;;;;14.50;12.18;;;17.50;72.20;;;;;;4970762;28;20121;-81
2023/11/23 02:25:27;;;;;;;12.43;10.93;;;17.50;72.20;;;;;;4973061;28;20038;-83
2023/11/23 02:27:53;;;;;;;12.90;11.10;;;17.50;72.40;;;;;;4972773;28;20043;-82
2023/11/23 02:30:19;;;;;;;11.27;10.10;;;17.50;72.50;;;;;;4971627;28;20035;-81
2023/11/23 02:32:45;;;;;;;11.52;10.43;;;17.50;72.50;;;;;;4968042;28;20035;-81
2023/11/23 02:35:12;;;;;;;11.68;10.48;;;17.50;72.50;;;;;;4971715;28;20043;-81
2023/11/23 02:37:39;;;;;;;12.50;10.82;;;17.50;72.60;;;;;;4952588;28;20074;-82
2023/11/23 02:40:06;;;;;;;12.13;10.93;;;17.50;72.80;;;;;;4970731;28;20038;-81
2023/11/23 02:42:32;;;;;;;11.43;10.15;;;17.50;72.70;;;;;;4964746;28;20046;-81
2023/11/23 02:44:58;;;;;;;10.77;9.43;;;17.50;72.70;;;;;;4971326;28;20050;-80
2023/11/23 02:47:23;;;;;;;12.07;10.70;;;17.50;72.70;;;;;;4950406;28;20078;-80
2023/11/23 02:49:49;;;;;;;10.90;9.80;;;17.50;72.70;;;;;;4967865;28;20419;-80
2023/11/23 02:52:14;;;;;;;10.60;9.60;;;17.50;72.70;;;;;;4950178;28;20050;-81
2023/11/23 02:54:40;;;;;;;10.88;9.77;;;17.50;72.70;;;;;;4969627;28;20034;-81
2023/11/23 02:57:05;;;;;;;11.07;9.98;;;17.50;72.80;;;;;;4970733;28;20053;-81
2023/11/23 02:59:31;;;;;;;10.30;9.25;;;17.50;72.90;;;;;;4967139;28;20043;-81
2023/11/23 03:01:56;;;;;;;11.82;10.63;;;17.50;72.90;;;;;;4972410;28;20051;-81
2023/11/23 03:04:22;;;;;;;10.10;9.10;;;17.50;72.80;;;;;;4970497;28;20043;-81
2023/11/23 03:06:47;;;;;;;10.23;9.23;;;17.50;72.90;;;;;;4962175;28;20074;-80
2023/11/23 03:09:13;;;;;;;9.70;8.75;;;17.50;72.90;;;;;;4969709;28;20038;-81
2023/11/23 03:11:40;;;;;;;10.45;9.35;;;17.50;72.90;;;;;;4965123;28;20583;-81
2023/11/23 03:14:05;;;;;;;9.60;8.60;;;17.50;73.00;;;;;;4968428;28;20137;-81
2023/11/23 03:16:32;;;;;;;9.82;8.82;;;17.50;73.10;;;;;;4973891;28;20564;-81
2023/11/23 03:18:58;;;;;;;8.43;7.47;;;17.50;73.10;;;;;;4970118;28;20548;-81
2023/11/23 03:21:24;;;;;;;9.40;8.40;;;17.50;73.10;;;;;;4968195;28;20027;-81
2023/11/23 03:23:50;;;;;;;9.32;8.35;;;17.40;73.00;;;;;;4949734;28;20043;-81
2023/11/23 03:26:16;;;;;;;8.60;7.80;;;17.40;73.10;;;;;;4966983;28;20096;-80
2023/11/23 03:28:42;;;;;;;8.50;7.70;;;17.40;73.10;;;;;;4969185;28;20564;-81
2023/11/23 03:31:08;;;;;;;8.00;7.30;;;17.40;73.10;;;;;;4970100;28;20147;-81
2023/11/23 03:33:33;;;;;;;9.02;8.18;;;17.40;73.30;;;;;;4972170;28;20042;-81
2023/11/23 03:35:59;;;;;;;8.85;7.95;;;17.40;73.40;;;;;;4967084;28;20053;-80
2023/11/23 03:38:24;;;;;;;8.38;7.55;;;17.40;73.20;;;;;;4966149;28;20066;-80
2023/11/23 03:40:50;;;;;;;8.52;7.72;;;17.40;73.20;;;;;;4968925;28;20085;-81
2023/11/23 03:43:15;;;;;;;8.85;8.05;;;17.40;73.20;;;;;;4970070;28;20031;-81
2023/11/23 03:45:41;;;;;;;7.38;6.78;;;17.40;73.30;;;;;;4969924;28;20035;-81
2023/11/23 03:48:07;;;;;;;7.25;6.63;;;17.40;73.30;;;;;;4971027;28;20085;-81
2023/11/23 03:50:33;;;;;;;8.52;7.82;;;17.40;73.30;;;;;;4968494;28;20483;-82
2023/11/23 03:52:59;;;;;;;7.57;6.88;;;17.40;73.20;;;;;;4970027;28;20039;-82
2023/11/23 03:55:24;;;;;;;8.05;7.35;;;17.40;73.30;;;;;;4950333;28;20034;-82
2023/11/23 03:57:50;;;;;;;8.13;7.32;;;17.40;73.30;;;;;;4967954;28;20049;-83
2023/11/23 04:00:16;;;;;;;7.03;6.43;;;17.40;73.60;;;;;;4968128;28;20069;-81
2023/11/23 04:02:43;;;;;;;7.70;7.00;;;17.40;73.40;;;;;;4967763;28;20496;-80
2023/11/23 04:05:08;;;;;;;6.95;6.45;;;17.40;73.40;;;;;;4967637;28;20039;-80
2023/11/23 04:07:34;;;;;;;7.50;6.88;;;17.40;73.40;;;;;;4968893;28;20039;-83
2023/11/23 04:10:00;;;;;;;7.55;6.93;;;17.40;73.40;;;;;;4949743;28;20138;-82
2023/11/23 04:12:25;;;;;;;7.10;6.50;;;17.40;73.40;;;;;;4969163;28;20082;-82
2023/11/23 04:14:51;;;;;;;7.15;6.55;;;17.40;73.40;;;;;;4970068;28;20362;-82
2023/11/23 04:17:17;;;;;;;7.05;6.55;;;17.40;73.40;;;;;;4966303;28;20037;-82
2023/11/23 04:19:43;;;;;;;6.68;6.18;;;17.40;73.40;;;;;;4969800;28;20034;-82
2023/11/23 04:22:09;;;;;;;6.57;6.10;;;17.40;73.40;;;;;;4970222;28;20077;-82
2023/11/23 04:24:37;;;;;;;6.72;6.22;;;17.40;73.40;;;;;;4964512;28;20034;-82
2023/11/23 04:27:03;;;;;;;6.22;5.72;;;17.30;73.40;;;;;;4967563;28;20059;-81
2023/11/23 04:29:28;;;;;;;6.30;5.80;;;17.40;73.40;;;;;;4966747;28;20038;-80
2023/11/23 04:31:54;;;;;;;6.72;6.22;;;17.40;73.30;;;;;;4966366;28;20041;-81
2023/11/23 04:34:19;;;;;;;5.72;5.32;;;17.40;73.40;;;;;;4968445;28;20129;-81
2023/11/23 04:36:45;;;;;;;6.90;6.30;;;17.40;74.20;;;;;;4966390;28;20115;-81
2023/11/23 04:39:12;;;;;;;6.38;5.95;;;17.40;73.40;;;;;;4969854;28;20586;-81
2023/11/23 04:41:38;;;;;;;7.05;5.80;;;17.30;73.40;;;;;;4968196;28;20047;-81
2023/11/23 04:44:04;;;;;;;6.65;6.05;;;17.30;73.40;;;;;;4935205;28;20535;-80
2023/11/23 04:46:30;;;;;;;6.05;5.55;;;17.30;74.40;;;;;;4951774;28;20464;-81
2023/11/23 04:48:55;;;;;;;5.85;5.35;;;17.30;73.50;;;;;;4968464;28;20520;-81
2023/11/23 04:51:21;;;;;;;6.03;5.53;;;17.30;73.40;;;;;;4969002;28;20121;-81
2023/11/23 04:53:46;;;;;;;6.72;6.20;;;17.30;73.40;;;;;;4966653;28;20046;-80
2023/11/23 04:56:13;;;;;;;5.68;5.28;;;17.30;73.50;;;;;;4964590;28;20162;-81
2023/11/23 04:58:38;;;;;;;5.90;5.40;;;17.30;73.50;;;;;;4970233;28;20047;-81
2023/11/23 05:01:05;;;;;;;5.97;5.57;;;17.30;73.60;;;;;;4963920;28;20077;-81
2023/11/23 05:03:31;;;;;;;6.20;5.75;;;17.30;73.60;;;;;;4968427;28;20448;-81
2023/11/23 05:05:56;;;;;;;6.28;5.78;;;17.30;73.70;;;;;;4940826;28;20521;-81
2023/11/23 05:08:22;;;;;;;5.97;5.57;;;17.30;73.60;;;;;;4965971;28;20053;-81
2023/11/23 05:10:47;;;;;;;5.63;5.20;;;17.30;73.60;;;;;;4965840;28;20066;-81
2023/11/23 05:13:13;;;;;;;5.43;5.03;;;17.30;73.60;;;;;;4970700;28;20101;-81
2023/11/23 05:15:39;;;;;;;5.32;4.90;;;17.30;73.60;;;;;;4966042;28;20035;-84
2023/11/23 05:18:05;;;;;;;6.13;5.63;;;17.30;74.50;;;;;;4969307;28;20049;-84
2023/11/23 05:20:30;;;;;;;12.85;9.50;;;17.40;74.60;;;;;;4965099;28;20038;-82
2023/11/23 05:22:56;;;;;;;12.98;11.00;;;17.40;74.00;;;;;;4967184;28;20229;-85
2023/11/23 05:25:22;;;;;;;10.45;9.38;;;17.40;74.40;;;;;;4967383;28;20109;-81
2023/11/23 05:27:47;;;;;;;20.67;14.25;;;17.40;74.40;;;;;;4962815;28;20137;-81
2023/11/23 05:30:13;;;;;;;14.18;11.65;;;17.60;74.30;;;;;;4965158;28;20167;-80
2023/11/23 05:32:39;;;;;;;12.35;11.05;;;17.60;74.00;;;;;;4963427;28;20523;-81
2023/11/23 05:35:06;;;;;;;9.93;8.93;;;17.60;74.10;;;;;;4964347;28;20154;-81
2023/11/23 05:37:32;;;;;;;9.13;8.13;;;17.50;74.50;;;;;;4966540;28;20039;-82
2023/11/23 05:39:58;;;;;;;7.85;7.15;;;17.60;75.10;;;;;;4968754;28;20039;-82
2023/11/23 05:42:23;;;;;;;7.28;6.65;;;17.70;75.00;;;;;;4966123;28;20556;-83
2023/11/23 05:44:49;;;;;;;7.75;7.05;;;17.80;75.50;;;;;;4965060;28;20515;-83
2023/11/23 05:47:14;;;;;;;7.53;6.93;;;17.70;75.00;;;;;;4963659;28;20475;-83
2023/11/23 05:49:40;;;;;;;7.45;6.53;;;17.70;75.10;;;;;;4966893;28;20047;-83
2023/11/23 05:52:07;;;;;;;6.97;6.32;;;17.60;75.10;;;;;;4966119;28;20074;-83
2023/11/23 05:54:33;;;;;;;6.72;6.20;;;17.70;75.20;;;;;;4966273;28;21271;-82
2023/11/23 05:56:58;;;;;;;7.50;6.85;;;17.80;74.80;;;;;;4969558;28;20157;-82
2023/11/23 05:59:24;;;;;;;7.43;6.72;;;17.70;75.10;;;;;;4966647;28;20043;-83
2023/11/23 06:01:50;;;;;;;7.45;6.75;;;17.70;75.00;;;;;;4967767;28;20101;-84
2023/11/23 06:04:16;;;;;;;10.15;8.75;;;17.80;74.90;;;;;;4957828;28;20078;-81
2023/11/23 06:06:42;;;;;;;9.52;8.50;;;17.70;75.00;;;;;;4987855;28;20051;-81
2023/11/23 06:09:09;;;;;;;10.05;9.05;;;17.70;75.20;;;;;;4970333;28;20043;-82
2023/11/23 06:11:34;;;;;;;10.95;8.00;;;17.70;75.30;;;;;;4969615;28;22543;-83
2023/11/23 06:14:00;;;;;;;9.45;8.18;;;17.70;75.30;;;;;;4953667;28;20122;-79
2023/11/23 06:16:26;;;;;;;8.52;7.72;;;17.70;75.30;;;;;;4955594;28;20496;-78
2023/11/23 06:18:52;;;;;;;8.68;7.88;;;17.70;75.30;;;;;;4951920;28;20043;-78
2023/11/23 06:21:18;;;;;;;9.88;8.30;;;17.70;75.30;;;;;;4968071;28;20113;-78
2023/11/23 06:23:43;;;;;;;8.38;7.68;;;17.70;75.10;;;;;;4966814;28;20035;-78
2023/11/23 06:26:10;;;;;;;10.77;8.93;;;17.70;75.10;;;;;;4972062;28;20102;-78
2023/11/23 06:28:36;;;;;;;7.68;6.95;;;17.70;75.10;;;;;;4955816;28;20420;-79
2023/11/23 06:31:05;;;;;;;8.90;6.65;;;17.70;75.00;;;;;;4619848;28;10000246;-79
2023/11/23 06:33:31;;;;;;;6.80;6.20;;;17.70;75.20;;;;;;4955292;28;20080;-80
2023/11/23 06:35:56;;;;;;;8.35;7.55;;;17.70;74.90;;;;;;4961558;28;20509;-79
2023/11/23 06:38:23;;;;;;;7.97;7.28;;;17.70;75.00;;;;;;4958763;28;20505;-79
2023/11/23 06:40:50;;;;;;;6.90;6.22;;;17.70;75.00;;;;;;4930897;28;20057;-79
2023/11/23 06:43:15;;;;;;;7.50;6.75;;;17.70;75.00;;;;;;4964577;28;20065;-81
2023/11/23 06:45:41;;;;;;;7.03;6.35;;;17.80;75.10;;;;;;4945076;28;20122;-79
2023/11/23 06:48:06;;;;;;;6.47;5.88;;;17.80;75.10;;;;;;4958787;28;20265;-79
2023/11/23 06:50:32;;;;;;;7.03;6.43;;;17.80;74.70;;;;;;4960260;28;20504;-79
2023/11/23 06:52:59;;;;;;;6.32;5.82;;;17.80;74.70;;;;;;4958355;28;20130;-80
2023/11/23 06:55:24;;;;;;;6.78;6.28;;;17.80;74.60;;;;;;4945864;28;20057;-80
2023/11/23 06:57:50;;;;;;;6.60;6.07;;;17.80;74.90;;;;;;4959649;28;20054;-79
2023/11/23 07:00:22;;;;;;;6.18;5.60;;;17.70;74.80;;;;;;4961543;28;20470;-79
2023/11/23 07:02:51;;;;;;;6.80;6.10;;;17.70;74.90;;;;;;4961437;28;20050;-79
2023/11/23 07:05:19;;;;;;;6.35;5.75;;;17.70;74.70;;;;;;4961152;28;20043;-79
2023/11/23 07:07:47;;;;;;;6.65;6.05;;;17.70;74.80;;;;;;4963660;28;20058;-79
2023/11/23 07:10:13;;;;;;;6.07;5.45;;;17.70;74.70;;;;;;4961017;28;20057;-79
2023/11/23 07:12:42;;;;;;;8.85;5.18;;;17.70;74.80;;;;;;4946706;28;20082;-79
2023/11/23 07:15:12;;;;;;;5.57;5.13;;;17.70;74.80;;;;;;4958699;28;20043;-80
2023/11/23 07:17:38;;;;;;;5.15;4.78;;;17.70;74.60;;;;;;4962937;28;20039;-79
2023/11/23 07:20:05;;;;;;;5.07;4.60;;;17.70;74.70;;;;;;4963577;28;20394;-80
2023/11/23 07:22:31;;;;;;;5.60;4.88;;;17.70;74.60;;;;;;4950534;28;20042;-80
2023/11/23 07:24:57;;;;;;;6.55;4.95;;;17.80;74.60;;;;;;4945921;28;20039;-79
2023/11/23 07:27:22;;;;;;;4.63;4.25;;;17.90;74.30;;;;;;4962190;28;20043;-79
2023/11/23 07:29:49;;;;;;;5.30;4.90;;;17.90;74.20;;;;;;4965580;28;20167;-80
2023/11/23 07:32:15;;;;;;;5.13;4.22;;;17.80;74.30;;;;;;4964357;28;20129;-79
2023/11/23 07:34:41;;;;;;;4.28;3.97;;;17.80;74.00;;;;;;4932663;28;20537;-79
2023/11/23 07:37:08;;;;;;;4.47;4.15;;;17.80;74.00;;;;;;4961435;28;20043;-79
2023/11/23 07:39:33;;;;;;;4.40;4.10;;;17.80;74.00;;;;;;4954989;28;20074;-79
2023/11/23 07:41:59;;;;;;;5.22;4.35;;;17.80;74.00;;;;;;4962692;28;20133;-79
2023/11/23 07:44:25;;;;;;;4.32;4.03;;;17.80;74.00;;;;;;4964630;28;20069;-79
2023/11/23 07:46:54;;;;;;;3.95;3.60;;;17.80;74.00;;;;;;4960036;28;20436;-79
2023/11/23 07:49:19;;;;;;;3.65;3.45;;;17.80;74.10;;;;;;4949797;28;20109;-79
2023/11/23 07:51:45;;;;;;;4.20;3.80;;;17.80;74.00;;;;;;4966689;28;20129;-79
2023/11/23 07:54:10;;;;;;;3.70;3.40;;;17.80;74.00;;;;;;4957676;28;20045;-79
2023/11/23 07:56:36;;;;;;;3.90;3.60;;;17.80;74.40;;;;;;4969327;28;20830;-79
2023/11/23 07:59:02;;;;;;;3.20;2.97;;;17.80;74.60;;;;;;4967657;28;20042;-79
2023/11/23 08:01:28;;;;;;;4.10;3.05;;;17.70;74.50;;;;;;4969370;28;20054;-79
2023/11/23 08:03:53;;;;;;;3.83;3.42;;;17.80;74.40;;;;;;4967333;28;20038;-79
2023/11/23 08:06:19;;;;;;;3.45;3.03;;;17.70;74.30;;;;;;4954278;28;20060;-79
2023/11/23 08:08:45;;;;;;;4.25;3.88;;;17.70;74.50;;;;;;4948387;28;20539;-79
2023/11/23 08:11:13;;;;;;;3.88;3.00;;;17.70;74.40;;;;;;4968417;28;20050;-79
2023/11/23 08:13:39;;;;;;;2.95;2.72;;;17.70;74.60;;;;;;4947930;28;20073;-79
2023/11/23 08:16:06;;;;;;;3.30;2.95;;;17.70;74.60;;;;;;4967452;28;20039;-79
2023/11/23 08:18:31;;;;;;;3.47;3.17;;;17.70;74.50;;;;;;4967354;28;20038;-79
2023/11/23 08:20:58;;;;;;;3.25;3.05;;;17.70;74.50;;;;;;4963282;28;20445;-79
2023/11/23 08:23:24;;;;;;;3.45;3.15;;;17.70;74.60;;;;;;4969546;28;20398;-79
2023/11/23 08:25:49;;;;;;;3.13;2.92;;;17.70;74.60;;;;;;4969698;28;20061;-79
2023/11/23 08:28:16;;;;;;;3.05;2.80;;;17.70;74.60;;;;;;4968231;28;20505;-79
2023/11/23 08:30:42;;;;;;;2.97;2.67;;;17.70;74.70;;;;;;4966722;28;20038;-79
2023/11/23 08:33:08;;;;;;;3.13;2.92;;;17.70;74.70;;;;;;4966485;28;20110;-79
2023/11/23 08:35:33;;;;;;;3.55;2.83;;;17.70;74.70;;;;;;4965401;28;20130;-79
2023/11/23 08:38:00;;;;;;;2.90;2.70;;;17.70;74.70;;;;;;4966000;28;20117;-79
2023/11/23 08:40:26;;;;;;;3.05;2.85;;;17.70;74.60;;;;;;4968858;28;20042;-79
2023/11/23 08:42:52;;;;;;;3.10;2.70;;;17.70;74.60;;;;;;4966643;28;20458;-79
2023/11/23 08:45:18;;;;;;;2.85;2.65;;;17.70;74.60;;;;;;4968832;28;20034;-79
2023/11/23 08:47:43;;;;;;;3.10;2.67;;;17.70;74.60;;;;;;4967575;28;20456;-79
2023/11/23 08:50:09;;;;;;;3.03;2.83;;;17.60;74.50;;;;;;4964429;28;20421;-78
2023/11/23 08:52:37;;;;;;;3.03;2.70;;;17.70;74.60;;;;;;4968024;28;20437;-79
2023/11/23 08:55:04;;;;;;;3.00;2.80;;;17.70;75.30;;;;;;4966778;28;20101;-79
2023/11/23 08:57:29;;;;;;;3.13;2.88;;;17.60;74.50;;;;;;4966408;28;20050;-79
2023/11/23 08:59:55;;;;;;;3.10;2.90;;;17.60;74.60;;;;;;4967671;28;20047;-79
2023/11/23 09:02:21;;;;;;;2.95;2.60;;;17.60;74.50;;;;;;4950992;28;20050;-79
2023/11/23 09:04:47;;;;;;;3.00;2.80;;;17.60;74.50;;;;;;4966031;28;20039;-79
2023/11/23 09:07:13;;;;;;;2.90;2.70;;;17.60;74.50;;;;;;4969241;28;20059;-79
2023/11/23 09:09:39;;;;;;;3.45;2.72;;;17.60;74.40;;;;;;4966836;28;20042;-79
2023/11/23 09:12:05;;;;;;;2.45;2.35;;;17.60;74.40;;;;;;4966070;28;20054;-78
2023/11/23 09:14:30;;;;;;;2.88;2.67;;;17.60;74.40;;;;;;4966022;28;20686;-78
2023/11/23 09:16:56;;;;;;;2.42;2.33;;;17.60;74.30;;;;;;4966006;28;20052;-79
2023/11/23 09:19:22;;;;;;;2.75;2.50;;;17.60;74.30;;;;;;4966264;28;20043;-79
2023/11/23 09:21:47;;;;;;;2.30;2.20;;;17.60;74.30;;;;;;4965201;28;20513;-79
2023/11/23 09:24:14;;;;;;;2.80;2.42;;;17.60;74.40;;;;;;4964294;28;20058;-79
2023/11/23 09:26:40;;;;;;;2.20;2.10;;;17.60;74.40;;;;;;4981421;28;20047;-78
2023/11/23 09:29:05;;;;;;;2.20;2.10;;;17.60;74.40;;;;;;4965623;28;20050;-78
2023/11/23 09:31:33;;;;;;;2.05;1.95;;;17.60;74.30;;;;;;4967595;28;20038;-79
2023/11/23 09:33:59;;;;;;;2.38;2.10;;;17.60;74.30;;;;;;4965874;28;20445;-79
2023/11/23 09:36:25;;;;;;;2.50;2.30;;;17.60;74.30;;;;;;4966825;28;20045;-79
2023/11/23 09:38:51;;;;;;;2.13;2.03;;;17.60;74.30;;;;;;4961970;28;20398;-79
2023/11/23 09:41:19;;;;;;;3.13;2.08;;;17.60;74.30;;;;;;4966639;28;20509;-79
2023/11/23 09:43:46;;;;;;;2.00;1.90;;;17.50;74.30;;;;;;4964012;28;20134;-79
2023/11/23 09:46:12;;;;;;;2.42;2.33;;;17.60;74.30;;;;;;4966936;28;20138;-79
2023/11/23 09:48:38;;;;;;;1.95;1.85;;;17.60;74.40;;;;;;4966177;28;20153;-78
2023/11/23 09:51:04;;;;;;;1.98;1.88;;;17.60;74.40;;;;;;4964064;28;20039;-78
2023/11/23 09:53:30;;;;;;;2.38;2.00;;;17.50;74.30;;;;;;4966072;28;20050;-78
2023/11/23 09:55:56;;;;;;;2.13;2.03;;;17.50;74.30;;;;;;4950385;28;20400;-79
2023/11/23 09:58:22;;;;;;;1.95;1.85;;;17.50;74.30;;;;;;4933429;28;20043;-78
2023/11/23 10:00:48;;;;;;;1.98;1.88;;;17.50;74.30;;;;;;4965263;28;20055;-79
2023/11/23 10:03:14;;;;;;;2.05;1.95;;;17.50;74.30;;;;;;4965806;28;20066;-79
2023/11/23 10:05:39;;;;;;;2.00;1.90;;;17.50;74.30;;;;;;4966052;28;20085;-79
2023/11/23 10:08:05;;;;;;;2.15;2.00;;;17.50;74.30;;;;;;4964576;28;20050;-79
2023/11/23 10:10:30;;;;;;;1.77;1.63;;;17.50;74.20;;;;;;4967979;28;20559;-79
2023/11/23 10:12:56;;;;;;;1.83;1.73;;;17.50;74.20;;;;;;4963826;28;20042;-78
2023/11/23 10:15:24;;;;;;;1.75;1.65;;;17.50;74.20;;;;;;4967790;28;20497;-79
2023/11/23 10:17:50;;;;;;;1.88;1.77;;;17.50;74.20;;;;;;4964861;28;20055;-78
2023/11/23 10:20:16;;;;;;;1.75;1.65;;;17.50;74.20;;;;;;4965011;28;20085;-78
2023/11/23 10:22:45;;;;;;;1.77;1.67;;;17.50;74.30;;;;;;4964303;28;20039;-78
2023/11/23 10:25:33;;;;;;;1.70;1.60;;;17.50;74.70;;;;;;4965672;28;20387;-79
2023/11/23 10:28:03;;;;;;;1.77;1.67;;;17.50;74.20;;;;;;4963151;28;20143;-78
2023/11/23 10:30:29;;;;;;;2.10;2.00;;;17.50;74.20;;;;;;4967155;28;20055;-78
2023/11/23 10:32:55;;;;;;;1.77;1.67;;;17.50;74.20;;;;;;4965731;28;20070;-78
2023/11/23 10:35:21;;;;;;;1.67;1.58;;;17.50;74.20;;;;;;4964977;28;20078;-78
2023/11/23 10:37:54;;;;;;;1.90;1.80;;;17.50;74.10;;;;;;4949595;28;20504;-78
2023/11/23 10:40:21;;;;;;;1.50;1.40;;;17.50;74.00;;;;;;4966813;28;20043;-79
2023/11/23 10:42:51;;;;;;;1.83;1.73;;;17.50;74.20;;;;;;4970465;28;20556;-78
2023/11/23 10:45:19;;;;;;;1.50;1.40;;;17.50;75.10;;;;;;4969488;28;20049;-79
2023/11/23 10:47:47;;;;;;;1.45;1.35;;;17.50;74.20;;;;;;4968720;28;20099;-78
2023/11/23 10:50:13;;;;;;;1.58;1.48;;;17.50;74.10;;;;;;4969097;28;20063;-78
2023/11/23 10:52:38;;;;;;;1.65;1.55;;;17.50;74.10;;;;;;4968473;28;20050;-78
2023/11/23 10:55:05;;;;;;;1.35;1.27;;;17.50;74.00;;;;;;4983613;28;20050;-78
2023/11/23 10:57:31;;;;;;;1.33;1.23;;;17.50;73.90;;;;;;4967109;28;20568;-78
2023/11/23 10:59:56;;;;;;;1.40;1.35;;;17.50;74.10;;;;;;4968710;28;20175;-79
2023/11/23 11:02:22;;;;;;;1.58;1.48;;;17.50;74.00;;;;;;4953327;28;20049;-79
2023/11/23 11:04:48;;;;;;;1.60;1.50;;;17.50;74.00;;;;;;4955188;28;20050;-79
2023/11/23 11:07:13;;;;;;;1.58;1.48;;;17.50;74.00;;;;;;4951592;28;20051;-79
2023/11/23 11:09:39;;;;;;;1.60;1.50;;;17.50;74.00;;;;;;4966358;28;20043;-78
2023/11/23 11:12:07;;;;;;;1.60;1.50;;;17.50;73.90;;;;;;4969670;28;20054;-79
2023/11/23 11:14:36;;;;;;;1.60;1.50;;;17.50;74.00;;;;;;4968457;28;20039;-78
2023/11/23 11:17:05;;;;;;;1.55;1.45;;;17.50;74.00;;;;;;4968400;28;20117;-78
2023/11/23 11:19:47;;;;;;;1.48;1.38;;;17.50;74.00;;;;;;4969091;28;20516;-78
2023/11/23 11:22:13;;;;;;;1.52;1.42;;;17.50;73.90;;;;;;4967125;28;20053;-78
2023/11/23 11:24:39;;;;;;;1.42;1.33;;;17.50;74.00;;;;;;4966571;28;20042;-78
2023/11/23 11:27:10;;;;;;;1.42;1.20;;;17.50;74.00;;;;;;4968785;28;20072;-79
2023/11/23 11:29:36;;;;;;;1.30;1.30;;;17.60;73.80;;;;;;4968750;28;20455;-78
2023/11/23 11:32:07;;;;;;;1.35;1.33;;;17.50;74.00;;;;;;4964894;28;20051;-78
2023/11/23 11:34:34;;;;;;;1.13;1.05;;;17.60;73.70;;;;;;4970498;28;20046;-79
2023/11/23 11:37:04;;;;;;;1.38;1.27;;;17.60;73.80;;;;;;4970925;28;20051;-79
2023/11/23 11:39:36;;;;;;;1.08;0.90;;;17.50;73.90;;;;;;4970143;28;20676;-79
2023/11/23 11:42:03;;;;;;;1.40;1.30;;;17.50;73.90;;;;;;4966959;28;20100;-79
2023/11/23 11:44:35;;;;;;;1.25;1.25;;;17.50;74.10;;;;;;4963372;28;20046;-79
2023/11/23 11:47:02;;;;;;;1.35;1.30;;;17.50;73.70;;;;;;4965998;28;20047;-78
2023/11/23 11:49:28;;;;;;;1.35;1.25;;;17.50;73.90;;;;;;4970106;28;20154;-79
2023/11/23 11:51:54;;;;;;;1.40;1.30;;;17.50;73.80;;;;;;4970345;28;20125;-79
2023/11/23 11:54:22;;;;;;;1.10;1.00;;;17.50;73.80;;;;;;4968381;28;20049;-79
2023/11/23 11:56:48;;;;;;;1.30;1.20;;;17.50;73.70;;;;;;4966781;28;20053;-78
2023/11/23 11:59:16;;;;;;;1.50;1.40;;;17.50;73.80;;;;;;4952881;28;20085;-78
2023/11/23 12:01:43;;;;;;;1.20;1.20;;;17.50;73.70;;;;;;4966794;28;20604;-79
2023/11/23 12:04:12;;;;;;;0.90;0.90;;;17.50;73.70;;;;;;4953084;28;20070;-79
2023/11/23 12:06:38;;;;;;;1.13;1.10;;;17.50;73.80;;;;;;4951845;28;20051;-79
2023/11/23 12:09:09;;;;;;;1.20;1.10;;;17.50;73.60;;;;;;4961872;28;20069;-79
2023/11/23 12:11:35;;;;;;;1.02;1.02;;;17.50;73.60;;;;;;4966241;28;20050;-79
2023/11/23 12:14:00;;;;;;;1.10;1.10;;;17.50;73.50;;;;;;4968058;28;20050;-79
2023/11/23 12:16:35;;;;;;;1.23;1.13;;;17.60;73.50;;;;;;4969868;28;20061;-78
2023/11/23 12:19:01;;;;;;;1.25;1.20;;;17.60;73.60;;;;;;4966166;28;20051;-79
2023/11/23 12:21:28;;;;;;;1.17;1.00;;;17.50;73.60;;;;;;4967307;28;20046;-78
2023/11/23 12:23:54;;;;;;;0.80;0.80;;;17.50;73.30;;;;;;4948709;28;20046;-78
2023/11/23 12:26:20;;;;;;;1.10;1.10;;;17.60;73.50;;;;;;4950739;28;20046;-79
2023/11/23 12:28:49;;;;;;;1.25;1.23;;;17.60;73.50;;;;;;4952001;28;20073;-79
2023/11/23 12:31:15;;;;;;;0.90;0.90;;;17.50;73.60;;;;;;4966998;28;20161;-79
2023/11/23 12:33:40;;;;;;;1.30;1.20;;;17.50;73.60;;;;;;4968434;28;20042;-79
2023/11/23 12:36:06;;;;;;;0.75;0.75;;;17.40;73.70;;;;;;4951250;28;20050;-79